Time;durP1;ratioP1;P1;durP2;ratioP2;P2;SDS_P1;SDS_P2;PMS_P1;PMS_P2;Temp;Humidity;BMP_temperature;BMP_pressure;BME280_temperature;BME280_humidity;BME280_pressure;Samples;Min_cycle;Max_cycle;Signal;HPM_P1;HPM_P2
2021/07/15 00:02:22;;;;;;;181.80;72.22;;;19.30;99.90;;;;;;4873142;29;20055;-79
2021/07/15 00:04:48;;;;;;;133.32;68.50;;;19.40;99.90;;;;;;4874359;29;20036;-81
2021/07/15 00:07:16;;;;;;;117.95;66.65;;;19.40;99.90;;;;;;4874348;29;20059;-81
2021/07/15 00:09:43;;;;;;;121.03;69.25;;;19.30;99.90;;;;;;4856433;29;20048;-79
2021/07/15 00:12:14;;;;;;;206.23;78.43;;;19.40;99.90;;;;;;4890249;29;20126;-81
2021/07/15 00:14:41;;;;;;;98.65;61.55;;;19.40;99.90;;;;;;4895340;29;20036;-80
2021/07/15 00:17:08;;;;;;;115.40;65.45;;;19.30;99.90;;;;;;4872616;29;20043;-85
2021/07/15 00:19:36;;;;;;;111.22;66.30;;;19.30;99.90;;;;;;4888722;29;20040;-83
2021/07/15 00:22:03;;;;;;;133.80;71.15;;;19.40;99.90;;;;;;4878953;29;20087;-82
2021/07/15 00:24:29;;;;;;;100.45;62.63;;;19.40;99.90;;;;;;4909255;29;20048;-83
2021/07/15 00:26:56;;;;;;;154.25;71.35;;;19.30;99.90;;;;;;4889795;29;20040;-84
2021/07/15 00:29:22;;;;;;;139.98;69.25;;;19.40;99.90;;;;;;4882343;29;20048;-84
2021/07/15 00:31:49;;;;;;;120.65;65.30;;;19.30;99.90;;;;;;4891806;29;20066;-83
2021/07/15 00:34:15;;;;;;;106.35;60.35;;;19.30;99.90;;;;;;4913335;29;20071;-83
2021/07/15 00:36:41;;;;;;;96.78;61.13;;;19.30;99.90;;;;;;4878824;29;20084;-85
2021/07/15 00:39:07;;;;;;;127.75;64.97;;;19.40;99.90;;;;;;4873278;29;20131;-85
2021/07/15 00:41:34;;;;;;;97.18;61.80;;;19.40;99.90;;;;;;4876016;29;20235;-85
2021/07/15 00:44:01;;;;;;;87.60;58.15;;;19.40;99.90;;;;;;4888455;29;20036;-84
2021/07/15 00:46:27;;;;;;;104.78;59.75;;;19.50;99.90;;;;;;4874025;29;20046;-84
2021/07/15 00:48:53;;;;;;;92.05;58.22;;;19.40;99.90;;;;;;4868394;29;20590;-85
2021/07/15 00:51:20;;;;;;;114.25;59.70;;;19.40;99.90;;;;;;4885437;29;20044;-85
2021/07/15 00:53:49;;;;;;;82.53;56.28;;;19.40;99.90;;;;;;4888932;29;20116;-83
2021/07/15 00:56:17;;;;;;;86.57;55.03;;;19.40;99.90;;;;;;4892498;29;20115;-85
2021/07/15 00:58:43;;;;;;;75.28;52.20;;;19.30;99.90;;;;;;4871698;29;20083;-85
2021/07/15 01:01:09;;;;;;;83.35;54.40;;;19.30;99.90;;;;;;4857069;29;20539;-85
2021/07/15 01:03:35;;;;;;;73.85;49.97;;;19.30;99.90;;;;;;4871910;29;20036;-79
2021/07/15 01:06:02;;;;;;;71.80;51.47;;;19.30;99.90;;;;;;4886377;29;20361;-84
2021/07/15 01:08:28;;;;;;;72.68;50.88;;;19.50;99.90;;;;;;4887392;29;20035;-84
2021/07/15 01:11:16;;;;;;;73.90;50.75;;;19.40;99.90;;;;;;4868041;29;20036;-79
2021/07/15 01:14:15;;;;;;;76.43;51.75;;;19.40;99.90;;;;;;4884575;29;20143;-80
2021/07/15 01:16:57;;;;;;;92.93;52.38;;;19.30;99.90;;;;;;4846934;29;20053;-83
2021/07/15 01:19:57;;;;;;;73.60;48.88;;;19.30;99.90;;;;;;4888268;29;21711;-83
2021/07/15 01:22:47;;;;;;;78.25;48.70;;;19.30;99.90;;;;;;4891359;29;20727;-83
2021/07/15 01:25:41;;;;;;;69.60;46.58;;;19.20;99.90;;;;;;4888472;29;20107;-86
2021/07/15 01:28:10;;;;;;;66.88;45.92;;;19.30;99.90;;;;;;4887951;29;20043;-82
2021/07/15 01:30:42;;;;;;;89.38;47.28;;;19.30;99.90;;;;;;4895614;29;20036;-84
2021/07/15 01:33:30;;;;;;;59.83;44.17;;;19.20;99.90;;;;;;4888069;29;20051;-83
2021/07/15 01:36:23;;;;;;;71.45;47.28;;;19.30;99.90;;;;;;4905478;29;20096;-83
2021/07/15 01:39:12;;;;;;;62.42;44.55;;;19.30;99.90;;;;;;4900978;29;20064;-82
2021/07/15 01:41:47;;;;;;;62.60;43.10;;;19.40;99.90;;;;;;4887382;29;20040;-84
2021/07/15 01:44:32;;;;;;;104.15;49.72;;;19.30;99.90;;;;;;4891530;29;20500;-84
2021/07/15 01:47:00;;;;;;;63.25;42.95;;;19.20;99.90;;;;;;4888312;29;20044;-82
2021/07/15 01:49:27;;;;;;;78.80;47.97;;;19.20;99.90;;;;;;4903132;29;20039;-78
2021/07/15 01:51:58;;;;;;;67.50;44.30;;;19.20;99.90;;;;;;4889980;29;20044;-81
2021/07/15 01:54:26;;;;;;;64.32;42.28;;;19.20;99.90;;;;;;4889918;29;20078;-84
2021/07/15 01:56:53;;;;;;;76.80;46.67;;;19.30;99.90;;;;;;4871704;29;20040;-82
2021/07/15 01:59:23;;;;;;;64.53;45.17;;;19.30;99.90;;;;;;4870426;29;20095;-84
2021/07/15 02:01:51;;;;;;;62.67;45.50;;;19.30;99.90;;;;;;4891574;29;20122;-85
2021/07/15 02:04:18;;;;;;;59.45;43.65;;;19.30;99.90;;;;;;4912007;29;20131;-78
2021/07/15 02:06:51;;;;;;;62.55;44.05;;;19.30;99.90;;;;;;4888284;29;20082;-81
2021/07/15 02:09:19;;;;;;;59.80;43.08;;;19.40;99.90;;;;;;4896197;29;20051;-79
2021/07/15 02:11:48;;;;;;;56.78;41.30;;;19.40;99.90;;;;;;4846747;29;20068;-81
2021/07/15 02:14:15;;;;;;;59.45;41.75;;;19.30;99.90;;;;;;4887450;29;20052;-78
2021/07/15 02:16:47;;;;;;;69.40;43.47;;;19.30;99.90;;;;;;4886664;29;20043;-80
2021/07/15 02:19:15;;;;;;;51.58;41.78;;;19.30;99.90;;;;;;4885031;29;20533;-77
2021/07/15 02:21:42;;;;;;;60.80;44.22;;;19.30;99.90;;;;;;4854690;29;20083;-80
2021/07/15 02:24:11;;;;;;;68.05;45.85;;;19.50;99.90;;;;;;4869251;29;20476;-81
2021/07/15 02:26:40;;;;;;;66.95;44.30;;;19.40;99.90;;;;;;4871452;29;20119;-79
2021/07/15 02:29:06;;;;;;;59.13;44.83;;;19.40;99.90;;;;;;4902688;29;20619;-81
2021/07/15 02:31:38;;;;;;;63.72;44.30;;;19.40;99.90;;;;;;4873913;29;21617;-77
2021/07/15 02:34:12;;;;;;;63.17;44.20;;;19.40;99.90;;;;;;4887239;29;20063;-83
2021/07/15 02:36:39;;;;;;;60.47;43.25;;;19.40;99.90;;;;;;4907513;29;20526;-81
2021/07/15 02:39:09;;;;;;;52.47;40.20;;;19.50;99.90;;;;;;4871126;29;20059;-79
2021/07/15 02:41:36;;;;;;;61.22;42.15;;;19.40;99.90;;;;;;4888785;29;20032;-78
2021/07/15 02:44:03;;;;;;;63.58;42.83;;;19.50;99.90;;;;;;4858734;29;20059;-82
2021/07/15 02:46:30;;;;;;;59.35;41.00;;;19.40;99.90;;;;;;4873932;29;20056;-79
2021/07/15 02:48:57;;;;;;;60.55;41.33;;;19.40;99.90;;;;;;4892538;29;20123;-80
2021/07/15 02:51:24;;;;;;;57.20;40.80;;;19.40;99.90;;;;;;4874397;29;20051;-80
2021/07/15 02:53:50;;;;;;;73.22;43.88;;;19.40;99.90;;;;;;4872297;29;20186;-79
2021/07/15 02:56:39;;;;;;;58.83;42.60;;;19.40;99.90;;;;;;4872942;29;20047;-78
2021/07/15 02:59:15;;;;;;;65.93;40.37;;;19.40;99.90;;;;;;4888235;29;20044;-82
2021/07/15 03:01:52;;;;;;;53.67;39.75;;;19.30;99.90;;;;;;4890427;29;20351;-80
2021/07/15 03:04:35;;;;;;;70.97;42.85;;;19.30;99.90;;;;;;4872337;29;20604;-81
2021/07/15 03:07:07;;;;;;;55.03;39.90;;;19.30;99.90;;;;;;4873251;29;20048;-82
2021/07/15 03:09:34;;;;;;;59.25;40.15;;;19.20;99.90;;;;;;4904324;29;20123;-81
2021/07/15 03:12:11;;;;;;;55.45;39.10;;;19.30;99.90;;;;;;4871927;29;20059;-84
2021/07/15 03:14:43;;;;;;;63.90;38.80;;;19.30;99.90;;;;;;4872459;29;20044;-81
2021/07/15 03:17:13;;;;;;;68.28;40.50;;;19.40;99.90;;;;;;4885700;29;20078;-81
2021/07/15 03:19:46;;;;;;;70.95;40.95;;;19.40;99.90;;;;;;4873918;29;20107;-83
2021/07/15 03:22:13;;;;;;;57.90;38.30;;;19.40;99.90;;;;;;4889849;29;20048;-82
2021/07/15 03:24:50;;;;;;;59.15;38.33;;;19.30;99.90;;;;;;4888683;29;20496;-83
2021/07/15 03:27:18;;;;;;;52.47;38.88;;;19.40;99.90;;;;;;4886165;29;20215;-84
2021/07/15 03:29:47;;;;;;;67.40;38.92;;;19.40;99.90;;;;;;4876190;29;20050;-85
2021/07/15 03:32:14;;;;;;;64.55;39.90;;;19.30;99.90;;;;;;4886691;29;20055;-86
2021/07/15 03:34:43;;;;;;;50.05;37.28;;;19.30;99.90;;;;;;4875626;29;20092;-84
2021/07/15 03:37:09;;;;;;;60.90;37.90;;;19.20;99.90;;;;;;4873206;29;20503;-84
2021/07/15 03:39:36;;;;;;;54.40;35.92;;;19.30;99.90;;;;;;4857638;29;20059;-83
2021/07/15 03:42:06;;;;;;;56.95;35.30;;;19.20;99.90;;;;;;4887894;29;20036;-83
2021/07/15 03:44:33;;;;;;;56.50;33.20;;;19.20;99.90;;;;;;4873222;29;20059;-85
2021/07/15 03:47:04;;;;;;;50.97;34.83;;;19.20;99.90;;;;;;4856916;29;20679;-82
2021/07/15 03:49:31;;;;;;;64.70;33.83;;;19.20;99.90;;;;;;4873378;29;20051;-82
2021/07/15 03:51:57;;;;;;;50.60;32.50;;;19.20;99.90;;;;;;4891198;29;20471;-83
2021/07/15 03:54:24;;;;;;;50.25;32.83;;;19.20;99.90;;;;;;4885687;29;20040;-80
2021/07/15 03:56:51;;;;;;;53.55;33.88;;;19.20;99.90;;;;;;4857927;29;20066;-81
2021/07/15 03:59:19;;;;;;;65.07;34.00;;;19.30;99.90;;;;;;4885531;29;20044;-79
2021/07/15 04:02:00;;;;;;;53.90;33.38;;;19.20;99.90;;;;;;4885309;29;20044;-78
2021/07/15 04:04:29;;;;;;;62.28;33.08;;;19.30;99.90;;;;;;4903805;29;20040;-83
2021/07/15 04:06:59;;;;;;;54.92;33.85;;;19.20;99.90;;;;;;4886665;29;20056;-82
2021/07/15 04:09:31;;;;;;;46.47;31.35;;;19.20;99.90;;;;;;4888298;29;20124;-82
2021/07/15 04:11:58;;;;;;;50.63;31.88;;;19.20;99.90;;;;;;4903032;29;20505;-82
2021/07/15 04:15:02;;;;;;;49.05;32.30;;;19.20;99.90;;;;;;4856992;29;20076;-82
2021/07/15 04:17:31;;;;;;;50.33;31.38;;;19.20;99.90;;;;;;4900903;29;20044;-79
2021/07/15 04:20:04;;;;;;;46.20;29.23;;;19.20;99.90;;;;;;4903466;29;20306;-81
2021/07/15 04:22:30;;;;;;;49.63;29.00;;;19.10;99.90;;;;;;4857591;29;20067;-79
2021/07/15 04:24:58;;;;;;;50.80;30.90;;;19.20;99.90;;;;;;4885150;29;20856;-81
2021/07/15 04:27:27;;;;;;;51.22;30.30;;;19.20;99.90;;;;;;4886754;29;20044;-82
2021/07/15 04:30:00;;;;;;;39.85;29.15;;;19.20;99.90;;;;;;4855991;29;20040;-82
2021/07/15 04:32:47;;;;;;;54.53;29.95;;;19.20;99.90;;;;;;4872077;29;20143;-81
2021/07/15 04:35:15;;;;;;;55.20;30.33;;;19.20;99.90;;;;;;4884104;29;20052;-80
2021/07/15 04:37:43;;;;;;;46.47;28.60;;;19.10;99.90;;;;;;4870366;29;20135;-82
2021/07/15 04:40:16;;;;;;;44.35;28.70;;;19.10;99.90;;;;;;4882280;29;20048;-79
2021/07/15 04:42:43;;;;;;;44.92;29.42;;;19.20;99.90;;;;;;4887481;29;20048;-82
2021/07/15 04:45:11;;;;;;;43.92;28.65;;;19.20;99.90;;;;;;4899629;29;20419;-83
2021/07/15 04:47:43;;;;;;;46.97;29.25;;;19.10;99.90;;;;;;4871419;29;20048;-82
2021/07/15 04:50:21;;;;;;;50.92;30.83;;;19.10;99.90;;;;;;4885933;29;20048;-81
2021/07/15 04:52:49;;;;;;;57.97;30.10;;;19.10;99.90;;;;;;4896921;29;20192;-81
2021/07/15 04:55:22;;;;;;;48.70;29.35;;;19.00;99.90;;;;;;4870693;29;20059;-81
2021/07/15 04:57:51;;;;;;;47.70;30.23;;;19.00;99.90;;;;;;4898185;29;20143;-81
2021/07/15 05:00:17;;;;;;;48.67;29.17;;;19.00;99.90;;;;;;4884757;29;20646;-78
2021/07/15 05:02:44;;;;;;;46.72;29.35;;;19.00;99.90;;;;;;4882530;29;20047;-81
2021/07/15 05:05:13;;;;;;;49.28;29.58;;;19.00;99.90;;;;;;4887198;29;20042;-81
2021/07/15 05:07:40;;;;;;;49.38;28.65;;;18.90;99.90;;;;;;4900493;29;20068;-81
2021/07/15 05:10:09;;;;;;;46.35;28.95;;;19.00;99.90;;;;;;4883968;29;20044;-83
2021/07/15 05:12:35;;;;;;;42.58;25.75;;;19.00;99.90;;;;;;4883818;29;20664;-86
2021/07/15 05:15:03;;;;;;;41.70;26.52;;;19.00;99.90;;;;;;4882621;29;20043;-81
2021/07/15 05:17:31;;;;;;;45.35;28.13;;;19.00;99.90;;;;;;4869942;29;20082;-85
2021/07/15 05:19:57;;;;;;;49.40;28.35;;;19.00;99.90;;;;;;4880647;29;20142;-82
2021/07/15 05:22:23;;;;;;;41.50;27.70;;;19.00;99.90;;;;;;4903119;29;20044;-82
2021/07/15 05:24:49;;;;;;;43.47;27.83;;;19.00;99.90;;;;;;4882806;29;20063;-82
2021/07/15 05:27:15;;;;;;;43.40;26.42;;;19.00;99.90;;;;;;4853985;29;20770;-81
2021/07/15 05:29:41;;;;;;;50.85;29.75;;;18.90;99.90;;;;;;4852118;29;20040;-82
2021/07/15 05:32:07;;;;;;;46.25;28.98;;;19.00;99.90;;;;;;4884642;29;21477;-81
2021/07/15 05:34:34;;;;;;;58.53;31.30;;;18.90;99.90;;;;;;4884143;29;20231;-80
2021/07/15 05:37:01;;;;;;;54.13;31.23;;;19.00;99.90;;;;;;4868102;29;20547;-80
2021/07/15 05:39:27;;;;;;;51.38;29.55;;;19.00;99.90;;;;;;4871385;29;20056;-81
2021/07/15 05:41:56;;;;;;;54.70;31.67;;;19.00;99.90;;;;;;4852833;29;20127;-81
2021/07/15 05:44:22;;;;;;;56.78;32.30;;;18.90;99.90;;;;;;4882699;29;20055;-82
2021/07/15 05:46:48;;;;;;;54.92;32.42;;;18.80;99.90;;;;;;4852584;29;20048;-83
2021/07/15 05:49:14;;;;;;;54.75;30.40;;;18.90;99.90;;;;;;4871536;29;20518;-81
2021/07/15 05:51:46;;;;;;;55.22;31.80;;;18.90;99.90;;;;;;4881750;29;20110;-80
2021/07/15 05:54:15;;;;;;;54.13;32.05;;;18.80;99.90;;;;;;4870608;29;20044;-82
2021/07/15 05:56:41;;;;;;;52.67;31.95;;;18.90;99.90;;;;;;4868382;29;20048;-76
2021/07/15 05:59:07;;;;;;;59.17;31.55;;;18.90;99.90;;;;;;4869167;29;20051;-82
2021/07/15 06:01:33;;;;;;;52.40;29.85;;;18.80;99.90;;;;;;4852707;29;20076;-80
2021/07/15 06:03:59;;;;;;;57.53;30.30;;;18.80;99.90;;;;;;4857352;29;20040;-79
2021/07/15 06:06:28;;;;;;;47.78;29.67;;;18.80;99.90;;;;;;4856605;29;20388;-80
2021/07/15 06:08:53;;;;;;;47.88;29.08;;;18.80;99.90;;;;;;4885093;29;20263;-82
2021/07/15 06:11:20;;;;;;;50.78;28.42;;;18.80;99.90;;;;;;4863611;29;20534;-79
2021/07/15 06:13:46;;;;;;;53.65;30.83;;;18.80;99.90;;;;;;4868147;29;20052;-85
2021/07/15 06:16:12;;;;;;;47.28;27.73;;;18.90;99.90;;;;;;4868331;29;20099;-82
2021/07/15 06:18:38;;;;;;;52.20;28.33;;;18.90;99.90;;;;;;4902342;29;20032;-81
2021/07/15 06:21:10;;;;;;;43.75;25.55;;;18.80;99.90;;;;;;4902566;29;20040;-85
2021/07/15 06:23:36;;;;;;;47.05;27.67;;;18.80;99.90;;;;;;4886195;29;20130;-85
2021/07/15 06:26:03;;;;;;;44.97;25.60;;;18.80;99.90;;;;;;4868209;29;20566;-83
2021/07/15 06:28:29;;;;;;;47.22;25.02;;;18.80;99.90;;;;;;4869139;29;20048;-84
2021/07/15 06:30:55;;;;;;;43.28;24.90;;;18.80;99.90;;;;;;4871570;29;20062;-83
2021/07/15 06:33:23;;;;;;;52.97;27.00;;;18.80;99.90;;;;;;4886643;29;20573;-82
2021/07/15 06:35:51;;;;;;;48.40;26.73;;;18.80;99.90;;;;;;4869882;29;20751;-85
2021/07/15 06:38:21;;;;;;;46.85;26.63;;;18.80;99.90;;;;;;4901545;29;20054;-82
2021/07/15 06:40:53;;;;;;;47.67;26.55;;;18.70;99.90;;;;;;4887046;29;20048;-81
2021/07/15 06:43:19;;;;;;;42.55;26.48;;;18.80;99.90;;;;;;4884596;29;20119;-83
2021/07/15 06:45:44;;;;;;;43.15;26.85;;;18.90;99.90;;;;;;4873145;29;20191;-84
2021/07/15 06:48:10;;;;;;;51.97;28.75;;;18.80;99.90;;;;;;4856480;29;20630;-86
2021/07/15 06:50:36;;;;;;;42.97;27.02;;;18.90;99.90;;;;;;4887983;29;20052;-84
2021/07/15 06:53:05;;;;;;;53.58;28.90;;;18.80;99.90;;;;;;4876208;29;20095;-84
2021/07/15 06:55:31;;;;;;;46.95;27.27;;;18.80;99.90;;;;;;4886233;29;20078;-81
2021/07/15 06:57:57;;;;;;;47.22;27.85;;;18.80;99.90;;;;;;4887938;29;20581;-77
2021/07/15 07:00:23;;;;;;;49.15;27.55;;;18.80;99.90;;;;;;4850673;29;20052;-81
2021/07/15 07:02:49;;;;;;;42.78;25.60;;;18.80;99.90;;;;;;4888313;29;20055;-80
2021/07/15 07:05:16;;;;;;;45.67;27.25;;;18.90;99.90;;;;;;4865607;29;20578;-81
2021/07/15 07:07:43;;;;;;;45.10;27.67;;;18.90;99.90;;;;;;4881877;29;20180;-82
2021/07/15 07:10:11;;;;;;;43.15;27.23;;;18.90;99.90;;;;;;4868080;29;20056;-82
2021/07/15 07:12:38;;;;;;;45.47;26.63;;;19.00;99.90;;;;;;4870386;29;20135;-79
2021/07/15 07:15:06;;;;;;;44.40;27.83;;;18.90;99.90;;;;;;4849095;29;20052;-80
2021/07/15 07:17:32;;;;;;;47.78;25.88;;;18.90;99.90;;;;;;4835353;29;20127;-81
2021/07/15 07:19:58;;;;;;;47.97;28.08;;;18.90;99.90;;;;;;4850212;29;20139;-81
2021/07/15 07:22:24;;;;;;;55.75;29.60;;;18.90;99.90;;;;;;4896579;29;20099;-80
2021/07/15 07:24:50;;;;;;;35.38;22.38;;;18.90;99.90;;;;;;4835522;29;20068;-80
2021/07/15 07:27:16;;;;;;;41.55;22.20;;;18.90;99.90;;;;;;4880348;29;20130;-82
2021/07/15 07:29:42;;;;;;;38.53;22.98;;;18.90;99.90;;;;;;4882535;29;20165;-82
2021/07/15 07:32:11;;;;;;;41.00;22.63;;;18.90;99.90;;;;;;4863593;29;20040;-82
2021/07/15 07:34:37;;;;;;;33.70;19.98;;;18.90;99.90;;;;;;4866422;29;20040;-81
2021/07/15 07:37:04;;;;;;;31.23;18.73;;;18.90;99.90;;;;;;4851653;29;20055;-81
2021/07/15 07:39:34;;;;;;;30.50;19.52;;;18.90;99.90;;;;;;4865525;29;20043;-81
2021/07/15 07:42:12;;;;;;;31.83;18.65;;;18.90;99.90;;;;;;4867722;29;20037;-82
2021/07/15 07:44:57;;;;;;;22.65;15.55;;;18.90;99.90;;;;;;4852097;29;20158;-80
2021/07/15 07:47:32;;;;;;;22.85;14.73;;;18.90;99.90;;;;;;4873835;29;20047;-80
2021/07/15 07:49:58;;;;;;;22.73;15.93;;;18.90;99.90;;;;;;4869619;29;20040;-83
2021/07/15 07:52:24;;;;;;;21.73;14.00;;;18.90;99.90;;;;;;4868356;29;20503;-80
2021/07/15 07:54:50;;;;;;;24.98;14.57;;;18.90;99.90;;;;;;4887319;29;20048;-83
2021/07/15 07:57:17;;;;;;;22.42;15.02;;;18.90;99.90;;;;;;4884080;29;20103;-81
2021/07/15 07:59:43;;;;;;;20.48;13.05;;;18.90;99.90;;;;;;4870976;29;20052;-82
2021/07/15 08:02:12;;;;;;;19.30;13.05;;;18.80;99.90;;;;;;4871475;29;20052;-81
2021/07/15 08:04:44;;;;;;;19.93;13.37;;;18.90;99.90;;;;;;4870405;29;20116;-81
2021/07/15 08:07:14;;;;;;;25.02;14.40;;;18.90;99.90;;;;;;4872239;29;20087;-84
2021/07/15 08:09:45;;;;;;;19.15;14.60;;;18.80;99.90;;;;;;4870901;29;20071;-80
2021/07/15 08:12:16;;;;;;;26.25;15.80;;;18.80;99.90;;;;;;4873490;29;20044;-83
2021/07/15 08:14:44;;;;;;;24.95;16.50;;;18.80;99.90;;;;;;4876797;29;20550;-85
2021/07/15 08:17:10;;;;;;;19.50;13.07;;;18.90;99.90;;;;;;4877035;29;20067;-83
2021/07/15 08:19:37;;;;;;;18.40;12.95;;;18.70;99.90;;;;;;4877062;29;20503;-79
2021/07/15 08:22:03;;;;;;;20.95;13.23;;;18.60;99.90;;;;;;4858054;29;20079;-79
2021/07/15 08:24:29;;;;;;;19.30;13.18;;;18.60;99.90;;;;;;4879301;29;20720;-76
2021/07/15 08:26:55;;;;;;;16.85;12.65;;;18.60;99.90;;;;;;4871320;29;20755;-79
2021/07/15 08:29:21;;;;;;;16.75;13.13;;;18.60;99.90;;;;;;4869506;29;20044;-80
2021/07/15 08:31:48;;;;;;;21.52;15.00;;;18.50;99.90;;;;;;4872708;29;20700;-79
2021/07/15 08:34:13;;;;;;;22.98;16.00;;;18.50;99.90;;;;;;4855651;29;20337;-82
2021/07/15 08:36:42;;;;;;;22.98;15.88;;;18.50;99.90;;;;;;4878245;29;20044;-78
2021/07/15 08:39:12;;;;;;;28.10;18.27;;;18.60;99.90;;;;;;4879557;29;20044;-79
2021/07/15 08:41:39;;;;;;;24.77;18.10;;;18.50;99.90;;;;;;4868963;29;20065;-79
2021/07/15 08:44:06;;;;;;;25.05;18.33;;;18.50;99.90;;;;;;4882450;29;20051;-78
2021/07/15 08:46:34;;;;;;;30.98;19.90;;;18.50;99.90;;;;;;4900113;29;20044;-77
2021/07/15 08:49:01;;;;;;;37.42;20.58;;;18.50;99.90;;;;;;4889558;29;20052;-79
2021/07/15 08:51:27;;;;;;;34.75;19.88;;;18.60;99.90;;;;;;4875351;29;20048;-78
2021/07/15 08:53:53;;;;;;;34.75;20.05;;;18.50;99.90;;;;;;4894077;29;20059;-79
2021/07/15 08:59:06;;;;;;;39.42;22.88;;;18.50;99.90;;;;;;4866907;29;20063;-80
2021/07/15 09:01:34;;;;;;;36.15;24.05;;;18.50;99.90;;;;;;4898529;29;20195;-79
2021/07/15 09:04:02;;;;;;;43.10;25.20;;;18.50;99.90;;;;;;4889985;29;20044;-80
2021/07/15 09:06:29;;;;;;;41.97;24.08;;;18.50;99.90;;;;;;4867283;29;20965;-78
2021/07/15 09:08:55;;;;;;;33.13;23.02;;;18.50;99.90;;;;;;4899797;29;20079;-76
2021/07/15 09:11:22;;;;;;;31.58;22.38;;;18.50;99.90;;;;;;4903263;29;20054;-81
2021/07/15 09:13:49;;;;;;;34.75;21.27;;;18.50;99.90;;;;;;4895347;29;20040;-78
2021/07/15 09:16:16;;;;;;;31.17;21.60;;;18.50;99.90;;;;;;4900361;29;20068;-78
2021/07/15 09:18:57;;;;;;;31.20;21.02;;;18.50;99.90;;;;;;4908354;29;20514;-78
2021/07/15 09:21:25;;;;;;;41.20;24.42;;;18.60;99.90;;;;;;4897713;29;20341;-78
2021/07/15 09:23:50;;;;;;;33.75;21.13;;;18.50;99.90;;;;;;4853462;29;20456;-77
2021/07/15 09:26:17;;;;;;;36.13;20.30;;;18.60;99.90;;;;;;4886689;29;20550;-77
2021/07/15 09:28:43;;;;;;;37.70;21.35;;;18.60;99.90;;;;;;4889163;29;20045;-80
2021/07/15 09:31:23;;;;;;;29.15;19.13;;;18.60;99.90;;;;;;4874183;29;20061;-80
2021/07/15 09:33:49;;;;;;;34.53;21.40;;;18.70;99.90;;;;;;4877814;29;20071;-82
2021/07/15 09:36:19;;;;;;;22.77;18.05;;;18.70;99.90;;;;;;4864285;29;20048;-85
2021/07/15 09:38:47;;;;;;;25.85;16.88;;;18.70;99.90;;;;;;4871712;29;20055;-84
2021/07/15 09:41:17;;;;;;;22.55;17.63;;;18.70;99.90;;;;;;4873688;29;20083;-84
2021/07/15 09:43:44;;;;;;;26.08;18.75;;;18.70;99.90;;;;;;4871621;29;20078;-80
2021/07/15 09:46:16;;;;;;;27.55;18.70;;;18.70;99.90;;;;;;4888106;29;20116;-75
2021/07/15 09:48:45;;;;;;;30.13;19.13;;;18.80;99.90;;;;;;4883400;29;20411;-78
2021/07/15 09:51:12;;;;;;;27.13;17.92;;;18.90;99.90;;;;;;4894789;29;20475;-78
2021/07/15 09:53:42;;;;;;;29.80;18.88;;;18.80;99.90;;;;;;4874161;29;20318;-79
2021/07/15 09:56:16;;;;;;;27.20;17.58;;;18.70;99.90;;;;;;4902931;29;20036;-79
2021/07/15 09:58:45;;;;;;;22.52;17.08;;;18.70;99.90;;;;;;4887985;29;20040;-79
2021/07/15 10:01:14;;;;;;;22.52;15.52;;;18.70;99.90;;;;;;4888747;29;20044;-76
2021/07/15 10:03:42;;;;;;;22.50;15.55;;;18.70;99.90;;;;;;4873357;29;20071;-81
2021/07/15 10:06:10;;;;;;;20.95;15.63;;;18.60;99.90;;;;;;4875584;29;20589;-77
2021/07/15 10:08:40;;;;;;;22.17;15.35;;;18.60;99.90;;;;;;4883411;29;20049;-81
2021/07/15 10:11:27;;;;;;;17.00;13.70;;;18.60;99.90;;;;;;4879326;29;20036;-79
2021/07/15 10:14:06;;;;;;;20.65;13.32;;;18.60;99.90;;;;;;4887403;29;20062;-80
2021/07/15 10:16:45;;;;;;;23.80;13.65;;;18.50;99.90;;;;;;4891277;29;20059;-80
2021/07/15 10:19:20;;;;;;;22.05;15.52;;;18.50;99.90;;;;;;4886795;29;20047;-80
2021/07/15 10:21:59;;;;;;;23.88;16.60;;;18.50;99.90;;;;;;4903157;29;20059;-81
2021/07/15 10:24:26;;;;;;;26.20;16.13;;;18.50;99.90;;;;;;4871911;29;20047;-76
2021/07/15 10:26:58;;;;;;;23.30;15.13;;;18.50;99.90;;;;;;4899496;29;20102;-78
2021/07/15 10:29:26;;;;;;;25.33;16.90;;;18.60;99.90;;;;;;4885058;29;20139;-80
2021/07/15 10:31:53;;;;;;;32.42;18.27;;;18.60;99.90;;;;;;4903206;29;20418;-79
2021/07/15 10:34:19;;;;;;;25.48;17.42;;;18.60;99.90;;;;;;4871115;29;20135;-75
2021/07/15 10:36:46;;;;;;;26.42;17.08;;;18.60;99.90;;;;;;4905234;29;20067;-80
2021/07/15 10:39:14;;;;;;;29.65;18.38;;;18.70;99.90;;;;;;4887693;29;20059;-78
2021/07/15 10:41:53;;;;;;;30.55;18.42;;;18.70;99.90;;;;;;4881753;29;20059;-79
2021/07/15 10:44:23;;;;;;;36.70;19.88;;;18.70;99.90;;;;;;4871848;29;20064;-78
2021/07/15 10:46:51;;;;;;;34.33;19.75;;;18.70;99.90;;;;;;4899961;29;20431;-79
2021/07/15 10:49:19;;;;;;;32.28;20.27;;;18.70;99.90;;;;;;4890573;29;20415;-79
2021/07/15 10:51:47;;;;;;;33.65;19.48;;;18.70;99.90;;;;;;4905591;29;20036;-79
2021/07/15 10:54:15;;;;;;;35.13;19.77;;;18.70;99.90;;;;;;4893865;29;20043;-77
2021/07/15 10:56:48;;;;;;;32.42;19.08;;;18.70;99.90;;;;;;4875852;29;20087;-78
2021/07/15 10:59:31;;;;;;;32.15;18.38;;;18.80;99.90;;;;;;4892910;29;20099;-77
2021/07/15 11:02:01;;;;;;;32.22;19.33;;;18.80;99.90;;;;;;4889602;29;20047;-77
2021/07/15 11:04:35;;;;;;;28.98;18.33;;;18.80;99.90;;;;;;4877886;29;20554;-79
2021/07/15 11:07:15;;;;;;;29.80;18.38;;;18.90;99.90;;;;;;4890881;29;20064;-80
2021/07/15 11:09:41;;;;;;;29.23;18.52;;;18.90;99.90;;;;;;4893063;29;20040;-76
2021/07/15 11:12:35;;;;;;;31.05;17.70;;;18.90;99.90;;;;;;4891131;29;20106;-79
2021/07/15 11:15:21;;;;;;;27.23;17.30;;;18.90;99.90;;;;;;4894183;29;20036;-78
2021/07/15 11:17:53;;;;;;;25.50;16.63;;;18.90;99.90;;;;;;4875933;29;20056;-79
2021/07/15 11:20:31;;;;;;;30.52;17.45;;;19.00;99.90;;;;;;4876312;29;20626;-79
2021/07/15 11:23:21;;;;;;;33.90;18.75;;;19.00;99.90;;;;;;4871409;29;20179;-81
2021/07/15 11:25:47;;;;;;;23.35;17.60;;;19.00;99.90;;;;;;4883868;29;20055;-80
2021/07/15 11:28:22;;;;;;;28.55;18.05;;;19.00;99.90;;;;;;4862507;29;20052;-79
2021/07/15 11:30:52;;;;;;;23.85;16.65;;;19.00;99.90;;;;;;4871980;29;20514;-80
2021/07/15 11:36:07;;;;;;;28.15;16.73;;;18.90;99.90;;;;;;4906670;29;20044;-80
2021/07/15 11:38:55;;;;;;;33.92;19.05;;;19.00;99.90;;;;;;4908607;29;20583;-80
2021/07/15 11:41:23;;;;;;;29.23;17.33;;;18.90;99.90;;;;;;4890054;29;20048;-75
2021/07/15 11:43:56;;;;;;;26.92;16.88;;;18.90;99.90;;;;;;4861288;29;20655;-80
2021/07/15 11:46:32;;;;;;;31.35;17.88;;;19.00;99.90;;;;;;4874617;29;20062;-80
2021/07/15 11:49:56;;;;;;;30.23;18.33;;;19.00;99.90;;;;;;4904627;29;20652;-78
2021/07/15 11:52:04;;;;;;;27.75;17.10;;;19.00;99.90;;;;;;4897850;29;20058;-81
2021/07/15 11:54:47;;;;;;;30.63;17.63;;;19.00;99.90;;;;;;4876699;29;20052;-81
2021/07/15 11:57:12;;;;;;;32.80;18.23;;;19.00;99.90;;;;;;4892713;29;20144;-78
2021/07/15 11:59:43;;;;;;;27.17;17.92;;;19.00;99.90;;;;;;4886217;29;20617;-81
2021/07/15 12:02:24;;;;;;;26.42;17.05;;;19.10;99.90;;;;;;4873966;29;20519;-80
2021/07/15 12:05:18;;;;;;;27.00;17.52;;;19.00;99.90;;;;;;4896751;29;21033;-82
2021/07/15 12:07:46;;;;;;;27.92;18.00;;;19.10;99.90;;;;;;4890106;29;20059;-82
2021/07/15 12:10:38;;;;;;;29.02;17.10;;;19.00;99.90;;;;;;4903742;29;20047;-82
2021/07/15 12:13:09;;;;;;;27.27;17.85;;;19.00;99.90;;;;;;4882693;29;20199;-82
2021/07/15 12:15:37;;;;;;;28.20;16.83;;;19.00;99.90;;;;;;4887694;29;20131;-80
2021/07/15 12:18:15;;;;;;;30.27;16.52;;;19.00;99.90;;;;;;4871232;29;20107;-81
2021/07/15 12:20:53;;;;;;;24.90;17.05;;;19.00;99.90;;;;;;4872967;29;20475;-81
2021/07/15 12:23:22;;;;;;;31.98;18.02;;;19.00;99.90;;;;;;4906076;29;20151;-82
2021/07/15 12:25:51;;;;;;;24.40;14.85;;;19.00;99.90;;;;;;4884080;29;20036;-81
2021/07/15 12:28:26;;;;;;;22.23;16.35;;;19.00;99.90;;;;;;4901913;29;20824;-81
2021/07/15 12:30:55;;;;;;;23.58;15.45;;;19.00;99.90;;;;;;4889009;29;20095;-85
2021/07/15 12:33:33;;;;;;;28.05;15.27;;;19.00;99.90;;;;;;4890316;29;20040;-84
2021/07/15 12:36:07;;;;;;;26.95;16.35;;;19.00;99.90;;;;;;4875898;29;20514;-83
2021/07/15 12:38:33;;;;;;;20.17;14.45;;;19.00;99.90;;;;;;4861688;29;20387;-82
2021/07/15 12:41:08;;;;;;;27.60;15.95;;;18.90;99.90;;;;;;4858861;29;20099;-81
2021/07/15 12:43:41;;;;;;;25.45;14.30;;;18.80;99.90;;;;;;4889959;29;20120;-83
2021/07/15 12:46:24;;;;;;;26.50;14.45;;;18.80;99.90;;;;;;4909049;29;20480;-82
2021/07/15 12:48:53;;;;;;;28.13;16.38;;;18.80;99.90;;;;;;4889283;29;20059;-83